sensor_id;sensor_type;location;lat;lon;timestamp;P1;durP1;ratioP1;P2;durP2;ratioP2
51612;SDS011;37694;51.748;14.326;2023-12-20T00:00:55;3.47;;;2.22;;
51612;SDS011;37694;51.748;14.326;2023-12-20T00:03:21;2.30;;;1.92;;
51612;SDS011;37694;51.748;14.326;2023-12-20T00:05:47;2.97;;;1.85;;
51612;SDS011;37694;51.748;14.326;2023-12-20T00:08:13;3.70;;;2.38;;
51612;SDS011;37694;51.748;14.326;2023-12-20T00:10:38;2.95;;;2.67;;
51612;SDS011;37694;51.748;14.326;2023-12-20T00:13:04;2.50;;;2.25;;
51612;SDS011;37694;51.748;14.326;2023-12-20T00:15:31;2.58;;;2.38;;
51612;SDS011;37694;51.748;14.326;2023-12-20T00:17:57;6.68;;;2.30;;
51612;SDS011;37694;51.748;14.326;2023-12-20T00:20:22;5.72;;;2.80;;
51612;SDS011;37694;51.748;14.326;2023-12-20T00:22:48;2.70;;;2.45;;
51612;SDS011;37694;51.748;14.326;2023-12-20T00:25:13;3.05;;;2.55;;
51612;SDS011;37694;51.748;14.326;2023-12-20T00:27:39;2.60;;;2.20;;
51612;SDS011;37694;51.748;14.326;2023-12-20T00:30:05;4.55;;;2.33;;
51612;SDS011;37694;51.748;14.326;2023-12-20T00:32:31;5.15;;;2.70;;
51612;SDS011;37694;51.748;14.326;2023-12-20T00:34:57;4.95;;;2.83;;
51612;SDS011;37694;51.748;14.326;2023-12-20T00:37:22;3.15;;;2.75;;
51612;SDS011;37694;51.748;14.326;2023-12-20T00:39:49;3.58;;;2.80;;
51612;SDS011;37694;51.748;14.326;2023-12-20T00:42:14;4.65;;;2.72;;
51612;SDS011;37694;51.748;14.326;2023-12-20T00:44:40;2.92;;;2.60;;
51612;SDS011;37694;51.748;14.326;2023-12-20T00:47:06;3.20;;;2.90;;
51612;SDS011;37694;51.748;14.326;2023-12-20T00:49:32;4.07;;;2.78;;
51612;SDS011;37694;51.748;14.326;2023-12-20T00:51:57;2.90;;;2.50;;
51612;SDS011;37694;51.748;14.326;2023-12-20T00:54:23;3.78;;;2.88;;
51612;SDS011;37694;51.748;14.326;2023-12-20T00:56:49;3.03;;;2.20;;
51612;SDS011;37694;51.748;14.326;2023-12-20T00:59:16;6.57;;;2.90;;
51612;SDS011;37694;51.748;14.326;2023-12-20T01:01:42;3.03;;;2.75;;
51612;SDS011;37694;51.748;14.326;2023-12-20T01:04:07;3.45;;;2.80;;
51612;SDS011;37694;51.748;14.326;2023-12-20T01:06:33;3.92;;;3.22;;
51612;SDS011;37694;51.748;14.326;2023-12-20T01:08:59;4.28;;;2.75;;
51612;SDS011;37694;51.748;14.326;2023-12-20T01:11:24;2.88;;;2.63;;
51612;SDS011;37694;51.748;14.326;2023-12-20T01:13:50;3.80;;;2.90;;
51612;SDS011;37694;51.748;14.326;2023-12-20T01:16:16;3.83;;;2.88;;
51612;SDS011;37694;51.748;14.326;2023-12-20T01:18:41;3.38;;;2.83;;
51612;SDS011;37694;51.748;14.326;2023-12-20T01:21:07;3.13;;;2.83;;
51612;SDS011;37694;51.748;14.326;2023-12-20T01:23:33;3.50;;;3.17;;
51612;SDS011;37694;51.748;14.326;2023-12-20T01:25:58;3.40;;;3.10;;
51612;SDS011;37694;51.748;14.326;2023-12-20T01:28:27;3.50;;;3.20;;
51612;SDS011;37694;51.748;14.326;2023-12-20T01:30:53;3.63;;;3.03;;
51612;SDS011;37694;51.748;14.326;2023-12-20T01:33:19;4.45;;;2.92;;
51612;SDS011;37694;51.748;14.326;2023-12-20T01:35:44;3.20;;;2.90;;
51612;SDS011;37694;51.748;14.326;2023-12-20T01:38:10;5.35;;;3.45;;
51612;SDS011;37694;51.748;14.326;2023-12-20T01:40:36;3.50;;;3.20;;
51612;SDS011;37694;51.748;14.326;2023-12-20T01:43:02;5.65;;;3.15;;
51612;SDS011;37694;51.748;14.326;2023-12-20T01:45:33;6.03;;;2.80;;
51612;SDS011;37694;51.748;14.326;2023-12-20T01:47:58;6.15;;;3.35;;
51612;SDS011;37694;51.748;14.326;2023-12-20T01:50:25;4.13;;;3.22;;
51612;SDS011;37694;51.748;14.326;2023-12-20T01:52:52;3.85;;;3.05;;
51612;SDS011;37694;51.748;14.326;2023-12-20T01:55:20;3.50;;;3.20;;
51612;SDS011;37694;51.748;14.326;2023-12-20T01:57:47;3.25;;;2.95;;
51612;SDS011;37694;51.748;14.326;2023-12-20T02:00:12;2.90;;;2.70;;
51612;SDS011;37694;51.748;14.326;2023-12-20T02:02:40;3.40;;;3.00;;
51612;SDS011;37694;51.748;14.326;2023-12-20T02:05:06;3.03;;;2.72;;
51612;SDS011;37694;51.748;14.326;2023-12-20T02:07:33;5.13;;;3.38;;
51612;SDS011;37694;51.748;14.326;2023-12-20T02:10:00;3.22;;;2.88;;
51612;SDS011;37694;51.748;14.326;2023-12-20T02:12:26;3.22;;;2.80;;
51612;SDS011;37694;51.748;14.326;2023-12-20T02:14:52;3.63;;;3.15;;
51612;SDS011;37694;51.748;14.326;2023-12-20T02:17:19;3.38;;;3.08;;
51612;SDS011;37694;51.748;14.326;2023-12-20T02:19:45;3.53;;;3.20;;
51612;SDS011;37694;51.748;14.326;2023-12-20T02:22:11;3.40;;;3.03;;
51612;SDS011;37694;51.748;14.326;2023-12-20T02:24:37;5.72;;;3.10;;
51612;SDS011;37694;51.748;14.326;2023-12-20T02:27:03;2.92;;;2.72;;
51612;SDS011;37694;51.748;14.326;2023-12-20T02:29:32;3.22;;;2.85;;
51612;SDS011;37694;51.748;14.326;2023-12-20T02:32:01;3.35;;;2.95;;
51612;SDS011;37694;51.748;14.326;2023-12-20T02:34:28;5.20;;;3.00;;
51612;SDS011;37694;51.748;14.326;2023-12-20T02:36:54;4.15;;;3.13;;
51612;SDS011;37694;51.748;14.326;2023-12-20T02:39:20;3.28;;;3.03;;
51612;SDS011;37694;51.748;14.326;2023-12-20T02:41:46;3.38;;;3.08;;
51612;SDS011;37694;51.748;14.326;2023-12-20T02:44:12;3.20;;;2.90;;
51612;SDS011;37694;51.748;14.326;2023-12-20T02:46:38;3.90;;;3.20;;
51612;SDS011;37694;51.748;14.326;2023-12-20T02:49:04;3.30;;;3.00;;
51612;SDS011;37694;51.748;14.326;2023-12-20T02:51:31;2.90;;;2.70;;
51612;SDS011;37694;51.748;14.326;2023-12-20T02:53:56;2.95;;;2.75;;
51612;SDS011;37694;51.748;14.326;2023-12-20T02:56:22;3.42;;;3.13;;
51612;SDS011;37694;51.748;14.326;2023-12-20T02:58:47;2.60;;;2.40;;
51612;SDS011;37694;51.748;14.326;2023-12-20T03:01:13;3.55;;;3.25;;
51612;SDS011;37694;51.748;14.326;2023-12-20T03:03:39;3.10;;;2.60;;
51612;SDS011;37694;51.748;14.326;2023-12-20T03:06:05;3.15;;;2.85;;
51612;SDS011;37694;51.748;14.326;2023-12-20T03:08:30;3.30;;;2.88;;
51612;SDS011;37694;51.748;14.326;2023-12-20T03:10:56;3.17;;;2.88;;
51612;SDS011;37694;51.748;14.326;2023-12-20T03:13:23;3.83;;;3.17;;
51612;SDS011;37694;51.748;14.326;2023-12-20T03:15:49;3.40;;;3.10;;
51612;SDS011;37694;51.748;14.326;2023-12-20T03:18:14;3.47;;;2.90;;
51612;SDS011;37694;51.748;14.326;2023-12-20T03:20:40;3.63;;;3.10;;
51612;SDS011;37694;51.748;14.326;2023-12-20T03:23:06;3.80;;;3.33;;
51612;SDS011;37694;51.748;14.326;2023-12-20T03:25:32;2.95;;;2.60;;
51612;SDS011;37694;51.748;14.326;2023-12-20T03:27:59;6.03;;;2.95;;
51612;SDS011;37694;51.748;14.326;2023-12-20T03:30:25;3.38;;;3.08;;
51612;SDS011;37694;51.748;14.326;2023-12-20T03:32:50;3.30;;;3.00;;
51612;SDS011;37694;51.748;14.326;2023-12-20T03:35:16;3.78;;;3.33;;
51612;SDS011;37694;51.748;14.326;2023-12-20T03:37:42;3.58;;;3.25;;
51612;SDS011;37694;51.748;14.326;2023-12-20T03:40:08;3.15;;;2.85;;
51612;SDS011;37694;51.748;14.326;2023-12-20T03:42:34;2.67;;;2.20;;
51612;SDS011;37694;51.748;14.326;2023-12-20T03:44:59;6.95;;;2.70;;
51612;SDS011;37694;51.748;14.326;2023-12-20T03:47:25;3.10;;;2.90;;
51612;SDS011;37694;51.748;14.326;2023-12-20T03:49:51;3.08;;;2.78;;
51612;SDS011;37694;51.748;14.326;2023-12-20T03:52:16;3.08;;;2.78;;
51612;SDS011;37694;51.748;14.326;2023-12-20T03:54:42;3.05;;;2.85;;
51612;SDS011;37694;51.748;14.326;2023-12-20T03:57:08;4.22;;;2.75;;
51612;SDS011;37694;51.748;14.326;2023-12-20T03:59:37;5.00;;;2.90;;
51612;SDS011;37694;51.748;14.326;2023-12-20T04:02:03;3.30;;;2.85;;
51612;SDS011;37694;51.748;14.326;2023-12-20T04:04:29;3.22;;;2.92;;
51612;SDS011;37694;51.748;14.326;2023-12-20T04:06:55;3.38;;;2.85;;
51612;SDS011;37694;51.748;14.326;2023-12-20T04:09:20;2.80;;;2.60;;
51612;SDS011;37694;51.748;14.326;2023-12-20T04:11:46;3.42;;;3.13;;
51612;SDS011;37694;51.748;14.326;2023-12-20T04:14:12;2.60;;;2.40;;
51612;SDS011;37694;51.748;14.326;2023-12-20T04:16:37;3.35;;;3.05;;
51612;SDS011;37694;51.748;14.326;2023-12-20T04:19:04;3.35;;;3.05;;
51612;SDS011;37694;51.748;14.326;2023-12-20T04:21:30;3.03;;;2.70;;
51612;SDS011;37694;51.748;14.326;2023-12-20T04:23:55;2.60;;;2.40;;
51612;SDS011;37694;51.748;14.326;2023-12-20T04:26:21;3.00;;;2.70;;
51612;SDS011;37694;51.748;14.326;2023-12-20T04:28:47;3.00;;;2.75;;
51612;SDS011;37694;51.748;14.326;2023-12-20T04:31:13;2.65;;;2.45;;
51612;SDS011;37694;51.748;14.326;2023-12-20T04:33:38;3.10;;;2.60;;
51612;SDS011;37694;51.748;14.326;2023-12-20T04:36:04;3.95;;;2.78;;
51612;SDS011;37694;51.748;14.326;2023-12-20T04:38:30;4.15;;;2.50;;
51612;SDS011;37694;51.748;14.326;2023-12-20T04:40:55;3.28;;;2.97;;
51612;SDS011;37694;51.748;14.326;2023-12-20T04:43:21;3.00;;;2.45;;
51612;SDS011;37694;51.748;14.326;2023-12-20T04:45:47;2.55;;;2.35;;
51612;SDS011;37694;51.748;14.326;2023-12-20T04:48:13;2.55;;;2.35;;
51612;SDS011;37694;51.748;14.326;2023-12-20T04:50:38;2.45;;;2.33;;
51612;SDS011;37694;51.748;14.326;2023-12-20T04:53:04;2.50;;;2.30;;
51612;SDS011;37694;51.748;14.326;2023-12-20T04:55:30;2.88;;;2.60;;
51612;SDS011;37694;51.748;14.326;2023-12-20T04:57:56;3.00;;;2.47;;
51612;SDS011;37694;51.748;14.326;2023-12-20T05:00:21;3.63;;;2.60;;
51612;SDS011;37694;51.748;14.326;2023-12-20T05:02:47;2.88;;;2.50;;
51612;SDS011;37694;51.748;14.326;2023-12-20T05:05:13;2.72;;;2.47;;
51612;SDS011;37694;51.748;14.326;2023-12-20T05:07:40;2.33;;;2.17;;
51612;SDS011;37694;51.748;14.326;2023-12-20T05:10:06;2.47;;;2.28;;
51612;SDS011;37694;51.748;14.326;2023-12-20T05:12:33;2.10;;;1.90;;
51612;SDS011;37694;51.748;14.326;2023-12-20T05:14:59;2.50;;;2.30;;
51612;SDS011;37694;51.748;14.326;2023-12-20T05:17:25;2.47;;;2.33;;
51612;SDS011;37694;51.748;14.326;2023-12-20T05:19:50;2.50;;;2.30;;
51612;SDS011;37694;51.748;14.326;2023-12-20T05:22:16;2.53;;;2.33;;
51612;SDS011;37694;51.748;14.326;2023-12-20T05:24:42;2.65;;;2.20;;
51612;SDS011;37694;51.748;14.326;2023-12-20T05:27:08;2.45;;;2.35;;
51612;SDS011;37694;51.748;14.326;2023-12-20T05:29:34;2.33;;;2.13;;
51612;SDS011;37694;51.748;14.326;2023-12-20T05:31:59;2.30;;;2.10;;
51612;SDS011;37694;51.748;14.326;2023-12-20T05:34:25;2.30;;;2.10;;
51612;SDS011;37694;51.748;14.326;2023-12-20T05:36:50;2.10;;;2.00;;
51612;SDS011;37694;51.748;14.326;2023-12-20T05:39:16;2.55;;;2.35;;
51612;SDS011;37694;51.748;14.326;2023-12-20T05:41:42;4.07;;;2.50;;
51612;SDS011;37694;51.748;14.326;2023-12-20T05:44:07;2.67;;;2.42;;
51612;SDS011;37694;51.748;14.326;2023-12-20T05:46:33;2.67;;;2.47;;
51612;SDS011;37694;51.748;14.326;2023-12-20T05:48:59;2.20;;;2.10;;
51612;SDS011;37694;51.748;14.326;2023-12-20T05:51:24;2.40;;;2.20;;
51612;SDS011;37694;51.748;14.326;2023-12-20T05:53:50;3.83;;;2.10;;
51612;SDS011;37694;51.748;14.326;2023-12-20T05:56:16;4.38;;;2.03;;
51612;SDS011;37694;51.748;14.326;2023-12-20T05:58:42;2.45;;;2.13;;
51612;SDS011;37694;51.748;14.326;2023-12-20T06:01:10;6.63;;;2.35;;
51612;SDS011;37694;51.748;14.326;2023-12-20T06:03:37;5.63;;;2.15;;
51612;SDS011;37694;51.748;14.326;2023-12-20T06:06:08;4.50;;;2.20;;
51612;SDS011;37694;51.748;14.326;2023-12-20T06:08:35;5.82;;;1.95;;
51612;SDS011;37694;51.748;14.326;2023-12-20T06:11:01;4.80;;;2.30;;
51612;SDS011;37694;51.748;14.326;2023-12-20T06:13:27;7.43;;;2.10;;
51612;SDS011;37694;51.748;14.326;2023-12-20T06:15:54;15.73;;;2.38;;
51612;SDS011;37694;51.748;14.326;2023-12-20T06:18:20;13.18;;;2.90;;
51612;SDS011;37694;51.748;14.326;2023-12-20T06:20:46;9.20;;;2.25;;
51612;SDS011;37694;51.748;14.326;2023-12-20T06:23:11;15.30;;;2.72;;
51612;SDS011;37694;51.748;14.326;2023-12-20T06:25:37;11.10;;;2.45;;
51612;SDS011;37694;51.748;14.326;2023-12-20T06:28:03;36.15;;;5.57;;
51612;SDS011;37694;51.748;14.326;2023-12-20T06:30:29;51.33;;;5.05;;
51612;SDS011;37694;51.748;14.326;2023-12-20T06:32:54;64.10;;;9.30;;
51612;SDS011;37694;51.748;14.326;2023-12-20T06:35:22;122.18;;;15.93;;
51612;SDS011;37694;51.748;14.326;2023-12-20T06:37:48;138.45;;;16.08;;
51612;SDS011;37694;51.748;14.326;2023-12-20T06:40:13;178.40;;;21.00;;
51612;SDS011;37694;51.748;14.326;2023-12-20T06:42:39;147.85;;;23.42;;
51612;SDS011;37694;51.748;14.326;2023-12-20T06:45:05;176.55;;;24.90;;
51612;SDS011;37694;51.748;14.326;2023-12-20T06:47:31;138.35;;;22.88;;
51612;SDS011;37694;51.748;14.326;2023-12-20T06:49:56;89.90;;;17.90;;
51612;SDS011;37694;51.748;14.326;2023-12-20T06:52:22;126.68;;;20.92;;
51612;SDS011;37694;51.748;14.326;2023-12-20T06:54:48;87.22;;;18.50;;
51612;SDS011;37694;51.748;14.326;2023-12-20T06:57:13;102.70;;;17.17;;
51612;SDS011;37694;51.748;14.326;2023-12-20T06:59:40;94.93;;;15.65;;
51612;SDS011;37694;51.748;14.326;2023-12-20T07:02:06;100.13;;;19.50;;
51612;SDS011;37694;51.748;14.326;2023-12-20T07:04:31;125.35;;;18.67;;
51612;SDS011;37694;51.748;14.326;2023-12-20T07:06:57;74.18;;;15.35;;
51612;SDS011;37694;51.748;14.326;2023-12-20T07:09:25;92.38;;;16.30;;
51612;SDS011;37694;51.748;14.326;2023-12-20T07:11:52;51.72;;;14.70;;
51612;SDS011;37694;51.748;14.326;2023-12-20T07:14:18;80.28;;;16.73;;
51612;SDS011;37694;51.748;14.326;2023-12-20T07:16:43;68.03;;;15.75;;
51612;SDS011;37694;51.748;14.326;2023-12-20T07:19:09;73.75;;;16.42;;
51612;SDS011;37694;51.748;14.326;2023-12-20T07:21:35;75.50;;;17.20;;
51612;SDS011;37694;51.748;14.326;2023-12-20T07:24:00;71.85;;;15.15;;
51612;SDS011;37694;51.748;14.326;2023-12-20T07:26:26;63.15;;;17.10;;
51612;SDS011;37694;51.748;14.326;2023-12-20T07:28:52;54.00;;;14.57;;
51612;SDS011;37694;51.748;14.326;2023-12-20T07:31:17;61.15;;;14.95;;
51612;SDS011;37694;51.748;14.326;2023-12-20T07:33:43;67.43;;;16.55;;
51612;SDS011;37694;51.748;14.326;2023-12-20T07:36:09;45.03;;;13.88;;
51612;SDS011;37694;51.748;14.326;2023-12-20T07:38:35;63.17;;;14.95;;
51612;SDS011;37694;51.748;14.326;2023-12-20T07:41:00;61.67;;;13.98;;
51612;SDS011;37694;51.748;14.326;2023-12-20T07:43:26;46.45;;;15.05;;
51612;SDS011;37694;51.748;14.326;2023-12-20T07:45:52;49.53;;;13.70;;
51612;SDS011;37694;51.748;14.326;2023-12-20T07:48:17;49.03;;;12.52;;
51612;SDS011;37694;51.748;14.326;2023-12-20T07:50:43;48.35;;;13.07;;
51612;SDS011;37694;51.748;14.326;2023-12-20T07:53:08;46.58;;;12.18;;
51612;SDS011;37694;51.748;14.326;2023-12-20T07:55:34;46.88;;;14.70;;
51612;SDS011;37694;51.748;14.326;2023-12-20T07:58:00;36.50;;;11.18;;
51612;SDS011;37694;51.748;14.326;2023-12-20T08:00:26;39.55;;;11.68;;
51612;SDS011;37694;51.748;14.326;2023-12-20T08:02:52;43.00;;;12.05;;
51612;SDS011;37694;51.748;14.326;2023-12-20T08:05:18;47.92;;;13.13;;
51612;SDS011;37694;51.748;14.326;2023-12-20T08:07:43;35.92;;;11.20;;
51612;SDS011;37694;51.748;14.326;2023-12-20T08:10:09;34.28;;;12.20;;
51612;SDS011;37694;51.748;14.326;2023-12-20T08:12:36;35.28;;;11.63;;
51612;SDS011;37694;51.748;14.326;2023-12-20T08:15:02;40.05;;;10.63;;
51612;SDS011;37694;51.748;14.326;2023-12-20T08:17:29;28.13;;;10.60;;
51612;SDS011;37694;51.748;14.326;2023-12-20T08:19:54;33.15;;;10.73;;
51612;SDS011;37694;51.748;14.326;2023-12-20T08:22:20;33.65;;;11.02;;
51612;SDS011;37694;51.748;14.326;2023-12-20T08:24:46;33.38;;;12.20;;
51612;SDS011;37694;51.748;14.326;2023-12-20T08:27:12;35.78;;;11.88;;
51612;SDS011;37694;51.748;14.326;2023-12-20T08:29:37;29.27;;;10.23;;
51612;SDS011;37694;51.748;14.326;2023-12-20T08:32:03;30.95;;;11.20;;
51612;SDS011;37694;51.748;14.326;2023-12-20T08:34:29;27.90;;;10.73;;
51612;SDS011;37694;51.748;14.326;2023-12-20T08:36:55;30.42;;;10.82;;
51612;SDS011;37694;51.748;14.326;2023-12-20T08:39:21;28.05;;;10.98;;
51612;SDS011;37694;51.748;14.326;2023-12-20T08:41:46;25.17;;;9.77;;
51612;SDS011;37694;51.748;14.326;2023-12-20T08:44:12;23.60;;;10.63;;
51612;SDS011;37694;51.748;14.326;2023-12-20T08:46:38;27.92;;;10.43;;
51612;SDS011;37694;51.748;14.326;2023-12-20T08:49:04;24.38;;;10.05;;
51612;SDS011;37694;51.748;14.326;2023-12-20T08:51:30;27.80;;;10.35;;
51612;SDS011;37694;51.748;14.326;2023-12-20T08:53:55;25.25;;;9.98;;
51612;SDS011;37694;51.748;14.326;2023-12-20T08:56:21;24.50;;;9.50;;
51612;SDS011;37694;51.748;14.326;2023-12-20T08:58:47;23.15;;;8.85;;
51612;SDS011;37694;51.748;14.326;2023-12-20T09:01:13;28.80;;;10.00;;
51612;SDS011;37694;51.748;14.326;2023-12-20T09:03:39;21.38;;;8.55;;
51612;SDS011;37694;51.748;14.326;2023-12-20T09:06:05;21.70;;;8.90;;
51612;SDS011;37694;51.748;14.326;2023-12-20T09:08:31;25.20;;;9.82;;
51612;SDS011;37694;51.748;14.326;2023-12-20T09:10:57;20.10;;;8.75;;
51612;SDS011;37694;51.748;14.326;2023-12-20T09:13:23;19.83;;;8.95;;
51612;SDS011;37694;51.748;14.326;2023-12-20T09:15:56;22.42;;;8.68;;
51612;SDS011;37694;51.748;14.326;2023-12-20T09:18:22;22.15;;;9.25;;
51612;SDS011;37694;51.748;14.326;2023-12-20T09:20:48;27.88;;;9.68;;
51612;SDS011;37694;51.748;14.326;2023-12-20T09:23:14;21.00;;;8.88;;
51612;SDS011;37694;51.748;14.326;2023-12-20T09:25:40;18.55;;;8.38;;
51612;SDS011;37694;51.748;14.326;2023-12-20T09:28:05;22.98;;;9.43;;
51612;SDS011;37694;51.748;14.326;2023-12-20T09:30:31;20.20;;;9.00;;
51612;SDS011;37694;51.748;14.326;2023-12-20T09:32:57;18.77;;;8.50;;
51612;SDS011;37694;51.748;14.326;2023-12-20T09:35:23;22.70;;;8.50;;
51612;SDS011;37694;51.748;14.326;2023-12-20T09:37:49;17.50;;;8.00;;
51612;SDS011;37694;51.748;14.326;2023-12-20T09:40:14;21.17;;;8.23;;
51612;SDS011;37694;51.748;14.326;2023-12-20T09:45:16;16.27;;;7.30;;
51612;SDS011;37694;51.748;14.326;2023-12-20T09:47:46;23.75;;;9.30;;
51612;SDS011;37694;51.748;14.326;2023-12-20T09:50:13;19.25;;;7.68;;
51612;SDS011;37694;51.748;14.326;2023-12-20T09:52:39;12.55;;;6.60;;
51612;SDS011;37694;51.748;14.326;2023-12-20T09:55:07;21.60;;;8.10;;
51612;SDS011;37694;51.748;14.326;2023-12-20T09:57:33;19.85;;;8.25;;
51612;SDS011;37694;51.748;14.326;2023-12-20T09:59:59;17.33;;;9.05;;
51612;SDS011;37694;51.748;14.326;2023-12-20T10:02:25;18.10;;;7.57;;
51612;SDS011;37694;51.748;14.326;2023-12-20T10:04:52;17.17;;;7.78;;
51612;SDS011;37694;51.748;14.326;2023-12-20T10:07:19;17.50;;;7.60;;
51612;SDS011;37694;51.748;14.326;2023-12-20T10:09:46;12.32;;;6.97;;
51612;SDS011;37694;51.748;14.326;2023-12-20T10:12:13;19.02;;;7.03;;
51612;SDS011;37694;51.748;14.326;2023-12-20T10:14:39;18.10;;;7.97;;
51612;SDS011;37694;51.748;14.326;2023-12-20T10:17:05;16.25;;;7.50;;
51612;SDS011;37694;51.748;14.326;2023-12-20T10:19:31;18.27;;;7.78;;
51612;SDS011;37694;51.748;14.326;2023-12-20T10:21:58;14.90;;;7.35;;
51612;SDS011;37694;51.748;14.326;2023-12-20T10:24:25;14.32;;;6.70;;
51612;SDS011;37694;51.748;14.326;2023-12-20T10:27:02;16.38;;;6.40;;
51612;SDS011;37694;51.748;14.326;2023-12-20T10:29:35;16.02;;;6.75;;
51612;SDS011;37694;51.748;14.326;2023-12-20T10:34:50;17.85;;;7.63;;
51612;SDS011;37694;51.748;14.326;2023-12-20T10:37:16;13.55;;;6.80;;
51612;SDS011;37694;51.748;14.326;2023-12-20T10:39:42;14.00;;;6.47;;
51612;SDS011;37694;51.748;14.326;2023-12-20T10:42:09;13.38;;;6.30;;
51612;SDS011;37694;51.748;14.326;2023-12-20T10:44:37;13.27;;;6.03;;
51612;SDS011;37694;51.748;14.326;2023-12-20T10:47:03;13.95;;;6.43;;
51612;SDS011;37694;51.748;14.326;2023-12-20T10:49:29;13.32;;;5.95;;
51612;SDS011;37694;51.748;14.326;2023-12-20T10:51:56;14.63;;;6.18;;
51612;SDS011;37694;51.748;14.326;2023-12-20T10:54:24;12.02;;;5.93;;
51612;SDS011;37694;51.748;14.326;2023-12-20T10:56:51;15.93;;;6.68;;
51612;SDS011;37694;51.748;14.326;2023-12-20T10:59:19;12.82;;;5.93;;
51612;SDS011;37694;51.748;14.326;2023-12-20T11:01:45;13.13;;;6.03;;
51612;SDS011;37694;51.748;14.326;2023-12-20T11:04:15;17.13;;;7.20;;
51612;SDS011;37694;51.748;14.326;2023-12-20T11:06:54;9.75;;;5.53;;
51612;SDS011;37694;51.748;14.326;2023-12-20T11:09:29;10.40;;;5.85;;
51612;SDS011;37694;51.748;14.326;2023-12-20T11:12:12;11.70;;;6.35;;
51612;SDS011;37694;51.748;14.326;2023-12-20T11:14:48;11.77;;;5.90;;
51612;SDS011;37694;51.748;14.326;2023-12-20T11:17:17;11.65;;;5.70;;
51612;SDS011;37694;51.748;14.326;2023-12-20T11:20:03;10.32;;;5.47;;
51612;SDS011;37694;51.748;14.326;2023-12-20T11:22:30;13.80;;;5.47;;
51612;SDS011;37694;51.748;14.326;2023-12-20T11:25:03;14.02;;;5.93;;
51612;SDS011;37694;51.748;14.326;2023-12-20T11:27:33;12.50;;;5.90;;
51612;SDS011;37694;51.748;14.326;2023-12-20T11:29:59;13.10;;;5.50;;
51612;SDS011;37694;51.748;14.326;2023-12-20T11:32:28;10.07;;;5.20;;
51612;SDS011;37694;51.748;14.326;2023-12-20T11:34:55;12.10;;;5.22;;
51612;SDS011;37694;51.748;14.326;2023-12-20T11:37:20;9.00;;;5.43;;
51612;SDS011;37694;51.748;14.326;2023-12-20T11:39:56;10.35;;;5.50;;
51612;SDS011;37694;51.748;14.326;2023-12-20T11:42:37;9.55;;;5.45;;
51612;SDS011;37694;51.748;14.326;2023-12-20T11:45:13;10.60;;;5.40;;
51612;SDS011;37694;51.748;14.326;2023-12-20T11:47:50;14.48;;;5.90;;
51612;SDS011;37694;51.748;14.326;2023-12-20T11:50:19;9.30;;;4.90;;
51612;SDS011;37694;51.748;14.326;2023-12-20T11:52:47;9.27;;;4.68;;
51612;SDS011;37694;51.748;14.326;2023-12-20T11:55:13;8.50;;;5.15;;
51612;SDS011;37694;51.748;14.326;2023-12-20T11:57:39;11.90;;;5.63;;
51612;SDS011;37694;51.748;14.326;2023-12-20T12:00:05;10.35;;;4.80;;
51612;SDS011;37694;51.748;14.326;2023-12-20T12:02:31;8.52;;;4.88;;
51612;SDS011;37694;51.748;14.326;2023-12-20T12:04:57;8.32;;;4.60;;
51612;SDS011;37694;51.748;14.326;2023-12-20T12:07:24;9.50;;;5.25;;
51612;SDS011;37694;51.748;14.326;2023-12-20T12:09:50;8.88;;;4.70;;
51612;SDS011;37694;51.748;14.326;2023-12-20T12:12:16;9.23;;;4.45;;
51612;SDS011;37694;51.748;14.326;2023-12-20T12:14:45;9.00;;;4.45;;
51612;SDS011;37694;51.748;14.326;2023-12-20T12:17:12;9.10;;;5.05;;
51612;SDS011;37694;51.748;14.326;2023-12-20T12:19:39;8.00;;;4.07;;
51612;SDS011;37694;51.748;14.326;2023-12-20T12:22:05;8.80;;;4.65;;
51612;SDS011;37694;51.748;14.326;2023-12-20T12:24:41;8.05;;;4.30;;
51612;SDS011;37694;51.748;14.326;2023-12-20T12:27:07;6.30;;;4.45;;
51612;SDS011;37694;51.748;14.326;2023-12-20T12:29:34;9.25;;;4.35;;
51612;SDS011;37694;51.748;14.326;2023-12-20T12:32:00;10.27;;;4.55;;
51612;SDS011;37694;51.748;14.326;2023-12-20T12:34:29;9.05;;;4.30;;
51612;SDS011;37694;51.748;14.326;2023-12-20T12:36:55;8.93;;;4.22;;
51612;SDS011;37694;51.748;14.326;2023-12-20T12:39:22;6.28;;;3.75;;
51612;SDS011;37694;51.748;14.326;2023-12-20T12:41:50;6.55;;;4.18;;
51612;SDS011;37694;51.748;14.326;2023-12-20T12:44:16;8.38;;;4.55;;
51612;SDS011;37694;51.748;14.326;2023-12-20T12:46:43;8.57;;;3.90;;
51612;SDS011;37694;51.748;14.326;2023-12-20T12:49:09;6.35;;;4.03;;
51612;SDS011;37694;51.748;14.326;2023-12-20T12:51:35;7.05;;;3.85;;
51612;SDS011;37694;51.748;14.326;2023-12-20T12:54:01;8.13;;;4.05;;
51612;SDS011;37694;51.748;14.326;2023-12-20T12:56:27;6.97;;;3.97;;
51612;SDS011;37694;51.748;14.326;2023-12-20T12:58:52;6.85;;;3.78;;
51612;SDS011;37694;51.748;14.326;2023-12-20T13:01:18;6.38;;;3.45;;
51612;SDS011;37694;51.748;14.326;2023-12-20T13:03:44;6.85;;;3.90;;
51612;SDS011;37694;51.748;14.326;2023-12-20T13:06:09;6.45;;;3.70;;
51612;SDS011;37694;51.748;14.326;2023-12-20T13:08:35;7.45;;;3.92;;
51612;SDS011;37694;51.748;14.326;2023-12-20T13:11:01;6.03;;;3.75;;
51612;SDS011;37694;51.748;14.326;2023-12-20T13:13:29;6.80;;;3.70;;
51612;SDS011;37694;51.748;14.326;2023-12-20T13:15:55;5.78;;;2.97;;
51612;SDS011;37694;51.748;14.326;2023-12-20T13:18:22;6.72;;;3.00;;
51612;SDS011;37694;51.748;14.326;2023-12-20T13:20:48;5.75;;;3.28;;
51612;SDS011;37694;51.748;14.326;2023-12-20T13:23:14;3.53;;;2.90;;
51612;SDS011;37694;51.748;14.326;2023-12-20T13:25:41;6.20;;;3.58;;
51612;SDS011;37694;51.748;14.326;2023-12-20T13:28:06;5.20;;;3.10;;
51612;SDS011;37694;51.748;14.326;2023-12-20T13:30:33;5.32;;;3.40;;
51612;SDS011;37694;51.748;14.326;2023-12-20T13:32:59;5.05;;;3.38;;
51612;SDS011;37694;51.748;14.326;2023-12-20T13:35:25;6.45;;;3.60;;
51612;SDS011;37694;51.748;14.326;2023-12-20T13:37:50;4.75;;;3.30;;
51612;SDS011;37694;51.748;14.326;2023-12-20T13:40:16;8.23;;;3.50;;
51612;SDS011;37694;51.748;14.326;2023-12-20T13:42:43;6.50;;;2.83;;
51612;SDS011;37694;51.748;14.326;2023-12-20T13:45:08;5.88;;;2.92;;
51612;SDS011;37694;51.748;14.326;2023-12-20T13:47:35;6.43;;;3.28;;
51612;SDS011;37694;51.748;14.326;2023-12-20T13:50:00;4.32;;;2.85;;
51612;SDS011;37694;51.748;14.326;2023-12-20T13:52:27;5.43;;;3.40;;
51612;SDS011;37694;51.748;14.326;2023-12-20T13:54:53;6.50;;;3.47;;
51612;SDS011;37694;51.748;14.326;2023-12-20T13:57:18;5.43;;;3.10;;
51612;SDS011;37694;51.748;14.326;2023-12-20T13:59:44;4.13;;;2.60;;
51612;SDS011;37694;51.748;14.326;2023-12-20T14:02:10;4.18;;;2.72;;
51612;SDS011;37694;51.748;14.326;2023-12-20T14:04:35;4.45;;;3.17;;
51612;SDS011;37694;51.748;14.326;2023-12-20T14:07:01;4.18;;;2.47;;
51612;SDS011;37694;51.748;14.326;2023-12-20T14:09:27;5.28;;;3.10;;
51612;SDS011;37694;51.748;14.326;2023-12-20T14:11:53;5.47;;;2.83;;
51612;SDS011;37694;51.748;14.326;2023-12-20T14:14:19;5.40;;;2.80;;
51612;SDS011;37694;51.748;14.326;2023-12-20T14:16:45;5.90;;;2.92;;
51612;SDS011;37694;51.748;14.326;2023-12-20T14:19:11;5.40;;;3.00;;
51612;SDS011;37694;51.748;14.326;2023-12-20T14:21:37;4.55;;;2.78;;
51612;SDS011;37694;51.748;14.326;2023-12-20T14:24:03;4.07;;;2.65;;
51612;SDS011;37694;51.748;14.326;2023-12-20T14:26:29;3.45;;;2.45;;